TimeMST,TemperatureF,Dew PointF,Humidity,Sea Level PressureIn,VisibilityMPH,Wind Direction,Wind SpeedMPH,Gust SpeedMPH,PrecipitationIn,Events,Conditions,WindDirDegrees,DateUTC
12:53 AM,14.0,1.9,59,30.42,10.0,West,5.8,-,N/A,,Mostly Cloudy,260,2013-01-03 07:53:00
1:53 AM,10.9,1.0,64,30.44,10.0,WSW,5.8,-,N/A,,Clear,250,2013-01-03 08:53:00
2:53 AM,10.0,1.0,67,30.45,10.0,Calm,Calm,-,N/A,,Clear,0,2013-01-03 09:53:00
3:53 AM,10.0,1.0,67,30.45,10.0,West,6.9,-,N/A,,Clear,280,2013-01-03 10:53:00
4:53 AM,9.0,-0.0,67,30.46,10.0,West,8.1,-,N/A,,Clear,280,2013-01-03 11:53:00
5:53 AM,10.0,-0.0,64,30.48,10.0,West,8.1,-,N/A,,Clear,260,2013-01-03 12:53:00
6:53 AM,7.0,-2.0,67,30.50,10.0,WSW,3.5,-,N/A,,Clear,250,2013-01-03 13:53:00
7:53 AM,9.0,-2.0,61,30.51,9.0,NW,8.1,-,N/A,,Clear,310,2013-01-03 14:53:00
8:53 AM,17.1,1.0,50,30.50,10.0,West,5.8,-,N/A,,Clear,280,2013-01-03 15:53:00
9:53 AM,23.0,1.0,39,30.47,10.0,WNW,9.2,-,N/A,,Clear,290,2013-01-03 16:53:00
10:53 AM,28.9,1.0,30,30.43,10.0,NW,3.5,-,N/A,,Clear,310,2013-01-03 17:53:00
11:53 AM,33.1,-0.0,24,30.38,10.0,WNW,8.1,-,N/A,,Clear,290,2013-01-03 18:53:00
12:53 PM,36.0,-2.0,20,30.32,10.0,WNW,4.6,-,N/A,,Clear,290,2013-01-03 19:53:00
1:53 PM,37.9,-5.1,16,30.30,10.0,East,3.5,-,N/A,,Clear,90,2013-01-03 20:53:00
2:53 PM,37.9,-5.1,16,30.30,10.0,ESE,6.9,-,N/A,,Clear,110,2013-01-03 21:53:00
3:53 PM,37.0,-6.0,16,30.30,10.0,ESE,6.9,-,N/A,,Clear,120,2013-01-03 22:53:00
4:53 PM,32.0,-5.8,20,30.20,10.0,SE,4.6,-,N/A,,Clear,130,2013-01-03 23:53:00
5:53 PM,23.0,-7.1,27,30.38,10.0,East,4.6,-,N/A,,Clear,100,2013-01-04 00:53:00
6:53 PM,19.0,-7.1,31,30.41,10.0,Calm,Calm,-,N/A,,Clear,0,2013-01-04 01:53:00
7:53 PM,14.0,-8.0,37,30.43,10.0,North,3.5,-,N/A,,Clear,350,2013-01-04 02:53:00
8:53 PM,12.0,-9.0,39,30.41,10.0,WSW,3.5,-,N/A,,Clear,250,2013-01-04 03:53:00
9:53 PM,14.0,-6.0,41,30.39,10.0,Calm,Calm,-,N/A,,Clear,0,2013-01-04 04:53:00
10:53 PM,12.0,-6.0,44,30.38,10.0,Calm,Calm,-,N/A,,Clear,0,2013-01-04 05:53:00
11:53 PM,3.9,-9.9,53,30.39,10.0,Calm,Calm,-,N/A,,Clear,0,2013-01-04 06:53:00